Time;durP1;ratioP1;P1;durP2;ratioP2;P2;SDS_P1;SDS_P2;PMS_P1;PMS_P2;Temp;Humidity;BMP_temperature;BMP_pressure;BME280_temperature;BME280_humidity;BME280_pressure;Samples;Min_cycle;Max_cycle;Signal;HPM_P1;HPM_P2
2021/12/30 00:04:32;;;;;;;1.98;0.90;;;18.10;68.20;;;;;;10496250;28;20108;-52
2021/12/30 00:09:33;;;;;;;2.20;0.82;;;18.10;68.20;;;;;;10483257;28;20476;-52
2021/12/30 00:14:33;;;;;;;2.38;1.02;;;18.10;68.10;;;;;;10494375;28;20028;-53
2021/12/30 00:19:34;;;;;;;3.05;0.95;;;18.10;68.20;;;;;;10496435;28;20055;-50
2021/12/30 00:24:35;;;;;;;2.65;0.95;;;18.10;68.10;;;;;;10496145;28;20077;-52
2021/12/30 00:29:36;;;;;;;1.73;0.90;;;18.10;68.10;;;;;;10486564;28;20043;-53
2021/12/30 00:34:37;;;;;;;2.05;1.02;;;18.10;68.10;;;;;;10499829;28;20028;-53
2021/12/30 00:39:38;;;;;;;4.43;1.10;;;18.10;68.00;;;;;;10524500;28;20372;-53
2021/12/30 00:44:38;;;;;;;2.70;0.95;;;18.10;68.10;;;;;;10499694;28;20036;-52
2021/12/30 00:49:39;;;;;;;2.67;0.80;;;18.10;67.90;;;;;;10516454;28;20032;-51
2021/12/30 00:54:40;;;;;;;4.75;1.13;;;18.10;68.00;;;;;;10483647;28;20499;-53
2021/12/30 00:59:41;;;;;;;2.20;0.95;;;18.10;67.80;;;;;;10514036;28;20035;-52
2021/12/30 01:04:42;;;;;;;2.30;1.10;;;18.10;67.80;;;;;;10536665;28;20399;-52
2021/12/30 01:09:42;;;;;;;1.88;0.80;;;18.20;67.80;;;;;;10538861;28;20021;-53
2021/12/30 01:14:46;;;;;;;2.33;0.77;;;18.20;67.80;;;;;;10484676;28;20488;-51
2021/12/30 01:19:50;;;;;;;2.25;1.00;;;18.20;67.80;;;;;;10493327;28;20125;-53
2021/12/30 01:24:51;;;;;;;1.88;0.77;;;18.10;67.80;;;;;;10533069;28;20050;-51
2021/12/30 01:29:52;;;;;;;2.47;0.88;;;18.10;67.80;;;;;;10543657;28;20048;-51
2021/12/30 01:34:53;;;;;;;2.22;0.90;;;18.10;67.70;;;;;;10530233;28;20417;-51
2021/12/30 01:39:54;;;;;;;2.00;0.98;;;18.10;67.80;;;;;;10543525;28;20038;-50
2021/12/30 01:44:55;;;;;;;2.80;0.88;;;18.10;67.80;;;;;;10508699;28;20028;-50
2021/12/30 01:49:56;;;;;;;3.28;1.10;;;18.10;67.70;;;;;;10520277;28;20405;-52
2021/12/30 01:54:56;;;;;;;3.72;0.80;;;18.10;67.70;;;;;;10501281;28;20029;-54
2021/12/30 01:59:57;;;;;;;1.52;0.85;;;18.10;67.60;;;;;;10502096;28;20104;-53
2021/12/30 02:04:58;;;;;;;3.50;0.95;;;18.10;67.70;;;;;;10528167;28;20028;-53
2021/12/30 02:10:02;;;;;;;2.03;0.90;;;18.10;67.60;;;;;;10509381;28;20032;-52
2021/12/30 02:15:09;;;;;;;1.88;0.85;;;18.20;67.60;;;;;;10528899;28;20115;-53
2021/12/30 02:20:33;;;;;;;2.58;0.95;;;18.10;67.50;;;;;;10506796;28;20109;-53
2021/12/30 02:25:34;;;;;;;2.45;1.05;;;18.10;67.50;;;;;;10500069;28;20424;-52
2021/12/30 02:30:35;;;;;;;4.18;1.30;;;18.10;67.60;;;;;;10491375;28;20056;-53
2021/12/30 02:35:36;;;;;;;2.75;1.30;;;18.10;67.60;;;;;;10499725;28;20025;-52
2021/12/30 02:40:42;;;;;;;3.17;0.90;;;18.20;67.60;;;;;;10497278;28;20032;-49
2021/12/30 02:45:43;;;;;;;2.00;0.95;;;18.10;67.50;;;;;;10533885;28;20031;-52
2021/12/30 02:50:45;;;;;;;2.88;0.80;;;18.10;67.50;;;;;;10479353;28;20416;-50
2021/12/30 02:55:48;;;;;;;1.98;1.00;;;18.10;67.40;;;;;;10509181;28;20486;-49
2021/12/30 03:00:58;;;;;;;1.25;0.77;;;18.10;67.50;;;;;;10515952;28;20514;-50
2021/12/30 03:06:03;;;;;;;2.35;0.80;;;18.10;67.50;;;;;;10520111;28;20357;-53
2021/12/30 03:11:04;;;;;;;2.13;0.70;;;18.10;67.50;;;;;;10529778;28;20032;-51
2021/12/30 03:16:17;;;;;;;2.53;0.93;;;18.10;67.40;;;;;;10498004;28;20024;-53
2021/12/30 03:21:20;;;;;;;1.85;0.85;;;18.10;67.40;;;;;;10497919;28;20048;-50
2021/12/30 03:26:22;;;;;;;2.22;0.98;;;18.10;67.30;;;;;;10500398;28;20242;-50
2021/12/30 03:31:23;;;;;;;1.30;0.65;;;18.20;67.30;;;;;;10520076;28;20645;-52
2021/12/30 03:36:25;;;;;;;2.22;0.93;;;18.10;67.30;;;;;;10507074;28;20129;-49
2021/12/30 03:41:28;;;;;;;0.90;0.57;;;18.10;67.30;;;;;;10468743;28;20039;-50
2021/12/30 03:46:30;;;;;;;2.45;1.00;;;18.10;67.40;;;;;;10500372;28;20039;-49
2021/12/30 03:51:37;;;;;;;1.67;0.77;;;18.10;67.30;;;;;;10505706;28;20045;-50
2021/12/30 03:56:38;;;;;;;1.88;0.80;;;18.20;67.30;;;;;;10504448;28;20484;-49
2021/12/30 04:01:40;;;;;;;1.23;0.60;;;18.10;67.20;;;;;;10505593;28;20099;-52
2021/12/30 04:06:40;;;;;;;3.00;0.85;;;18.20;67.30;;;;;;10491112;28;20025;-52
2021/12/30 04:11:41;;;;;;;1.58;0.85;;;18.10;67.30;;;;;;10481143;28;20038;-50
2021/12/30 04:16:42;;;;;;;1.30;0.50;;;18.10;67.30;;;;;;10505239;28;20380;-52
2021/12/30 04:21:43;;;;;;;2.35;0.80;;;18.10;67.30;;;;;;10536672;28;20484;-51
2021/12/30 04:26:43;;;;;;;1.95;1.00;;;18.20;67.20;;;;;;10507722;28;20141;-53
2021/12/30 04:31:44;;;;;;;1.58;0.70;;;18.10;67.10;;;;;;10505696;28;20028;-50
2021/12/30 04:36:45;;;;;;;1.27;0.70;;;18.10;67.10;;;;;;10518827;28;20032;-49
2021/12/30 04:41:46;;;;;;;2.00;0.98;;;18.10;67.20;;;;;;10526393;28;20036;-52
2021/12/30 04:46:47;;;;;;;2.45;1.00;;;18.10;67.20;;;;;;10544919;28;20106;-51
2021/12/30 04:51:48;;;;;;;1.10;0.70;;;18.10;67.20;;;;;;10517926;28;20028;-49
2021/12/30 04:56:50;;;;;;;1.45;0.63;;;18.10;67.10;;;;;;10531623;28;20024;-47
2021/12/30 05:01:51;;;;;;;1.75;0.80;;;18.10;67.10;;;;;;10508661;28;20187;-51
2021/12/30 05:06:52;;;;;;;2.03;0.93;;;18.10;67.00;;;;;;10511733;28;20403;-50
2021/12/30 05:11:53;;;;;;;2.20;0.93;;;18.10;67.10;;;;;;10502859;28;20037;-51
2021/12/30 05:16:55;;;;;;;1.13;0.65;;;18.10;67.10;;;;;;10529451;28;20122;-53
2021/12/30 05:21:58;;;;;;;1.48;0.80;;;18.10;67.10;;;;;;10502517;28;20079;-50
2021/12/30 05:26:58;;;;;;;2.08;0.80;;;18.10;67.10;;;;;;10510830;28;20108;-49
2021/12/30 05:31:59;;;;;;;2.67;0.95;;;18.10;67.10;;;;;;10544164;28;20124;-53
2021/12/30 05:37:00;;;;;;;1.95;0.88;;;18.10;67.10;;;;;;10543514;28;20095;-52
2021/12/30 05:42:00;;;;;;;1.42;0.65;;;18.10;67.10;;;;;;10521803;28;20127;-50
2021/12/30 05:47:01;;;;;;;2.15;0.90;;;18.10;67.00;;;;;;10522546;28;20051;-51
2021/12/30 05:52:02;;;;;;;1.70;0.90;;;18.20;66.90;;;;;;10504806;28;20036;-48
2021/12/30 05:57:03;;;;;;;2.55;0.70;;;18.10;66.90;;;;;;10503548;28;20025;-50
2021/12/30 06:02:05;;;;;;;2.03;0.85;;;18.10;66.90;;;;;;10499473;28;20044;-53
2021/12/30 06:07:05;;;;;;;1.83;0.77;;;18.10;66.90;;;;;;10519646;28;20056;-48
2021/12/30 06:12:07;;;;;;;2.75;0.77;;;18.10;66.90;;;;;;10495772;28;20033;-52
2021/12/30 06:17:10;;;;;;;6.82;1.25;;;18.10;67.40;;;;;;10519810;28;20396;-51
2021/12/30 06:22:13;;;;;;;2.38;0.90;;;18.20;67.10;;;;;;10498092;28;20109;-53
2021/12/30 06:27:14;;;;;;;3.92;1.02;;;18.40;67.10;;;;;;10518545;28;20066;-46
2021/12/30 06:32:14;;;;;;;4.85;1.60;;;18.40;68.30;;;;;;10512113;28;20028;-47
2021/12/30 06:37:15;;;;;;;12.38;1.40;;;18.30;67.60;;;;;;10499693;28;20033;-54
2021/12/30 06:42:16;;;;;;;6.53;1.55;;;18.40;68.60;;;;;;10495362;28;20093;-50
2021/12/30 06:47:17;;;;;;;9.88;1.40;;;18.40;68.40;;;;;;10526320;28;20036;-54
2021/12/30 06:52:18;;;;;;;13.60;2.10;;;18.50;68.30;;;;;;10524522;28;20028;-53
2021/12/30 06:57:18;;;;;;;12.52;1.73;;;18.50;68.80;;;;;;10502540;28;20099;-48
2021/12/30 07:02:19;;;;;;;7.65;1.48;;;18.40;68.90;;;;;;10498257;28;20024;-50
2021/12/30 07:07:20;;;;;;;7.40;1.65;;;18.40;68.90;;;;;;10506284;28;20057;-50
2021/12/30 07:12:21;;;;;;;12.85;1.75;;;18.30;69.30;;;;;;10516775;28;20497;-47
2021/12/30 07:17:21;;;;;;;13.10;1.63;;;18.20;69.40;;;;;;10537931;28;20050;-50
2021/12/30 07:22:22;;;;;;;7.20;1.58;;;18.20;69.30;;;;;;10521306;28;20429;-48
2021/12/30 07:27:23;;;;;;;7.18;1.65;;;18.10;69.10;;;;;;10490586;28;20480;-50
2021/12/30 07:32:24;;;;;;;19.27;3.05;;;18.10;69.20;;;;;;10538813;28;20032;-53
2021/12/30 07:37:24;;;;;;;14.57;2.72;;;18.00;70.20;;;;;;10498558;28;20468;-53
2021/12/30 07:42:25;;;;;;;10.48;2.15;;;18.10;69.50;;;;;;10517758;28;20039;-52
2021/12/30 07:47:26;;;;;;;12.35;1.95;;;18.00;69.30;;;;;;10459263;28;20032;-52
2021/12/30 07:52:27;;;;;;;11.07;1.60;;;18.00;69.20;;;;;;10486368;28;20040;-49
2021/12/30 07:57:28;;;;;;;17.25;2.42;;;18.00;69.10;;;;;;10494610;28;20377;-51
2021/12/30 08:02:28;;;;;;;6.70;1.70;;;18.00;69.10;;;;;;10496393;28;20404;-52
2021/12/30 08:07:29;;;;;;;8.48;1.95;;;18.00;69.20;;;;;;10503090;28;20036;-53
2021/12/30 08:12:30;;;;;;;8.15;1.77;;;18.00;69.20;;;;;;10529234;28;20032;-50
2021/12/30 08:17:30;;;;;;;5.93;1.52;;;18.00;69.20;;;;;;10534565;28;20081;-53
2021/12/30 08:22:32;;;;;;;6.07;1.42;;;17.90;69.20;;;;;;10524342;28;20057;-52
2021/12/30 08:27:33;;;;;;;4.40;1.55;;;17.90;69.30;;;;;;10531925;28;20032;-52
2021/12/30 08:32:34;;;;;;;6.15;1.60;;;17.90;69.20;;;;;;10517420;28;20020;-52
2021/12/30 08:37:35;;;;;;;3.72;1.15;;;17.90;69.10;;;;;;10535295;28;20381;-53
2021/12/30 08:42:36;;;;;;;4.13;1.20;;;17.90;69.00;;;;;;10534625;28;20036;-51
2021/12/30 08:47:38;;;;;;;7.75;1.48;;;17.90;69.00;;;;;;10534059;28;20036;-52
2021/12/30 08:52:40;;;;;;;5.18;1.13;;;17.90;69.00;;;;;;10516819;28;20399;-52
2021/12/30 08:57:42;;;;;;;4.00;1.00;;;17.90;69.10;;;;;;10459518;28;20020;-51
2021/12/30 09:02:43;;;;;;;3.50;1.25;;;18.00;68.80;;;;;;10484172;28;20388;-51
2021/12/30 09:07:44;;;;;;;5.88;1.02;;;18.10;68.40;;;;;;10493263;28;20025;-52
2021/12/30 09:12:47;;;;;;;2.65;0.90;;;18.10;68.30;;;;;;10493224;28;20036;-52
2021/12/30 09:17:48;;;;;;;2.63;1.02;;;18.00;68.30;;;;;;10478394;28;20071;-52
2021/12/30 09:22:52;;;;;;;4.43;1.17;;;18.00;68.40;;;;;;10492857;28;20043;-53
2021/12/30 09:27:55;;;;;;;4.60;0.80;;;18.10;68.30;;;;;;10493013;28;20028;-51
2021/12/30 09:33:00;;;;;;;2.60;0.90;;;18.10;68.00;;;;;;10541214;28;20020;-52
2021/12/30 09:38:01;;;;;;;2.15;0.90;;;18.20;68.10;;;;;;10491361;28;20033;-51
2021/12/30 09:43:03;;;;;;;4.22;1.35;;;18.10;68.10;;;;;;10504337;28;20028;-49
2021/12/30 09:48:08;;;;;;;3.33;0.98;;;18.10;68.30;;;;;;10542300;28;20478;-50
2021/12/30 09:53:09;;;;;;;2.40;1.00;;;18.00;68.40;;;;;;10529016;28;20032;-52
2021/12/30 09:58:10;;;;;;;2.15;1.17;;;18.00;68.40;;;;;;10486490;28;20108;-50
2021/12/30 10:03:11;;;;;;;4.93;0.98;;;18.10;68.20;;;;;;10524514;28;20027;-53
2021/12/30 10:08:25;;;;;;;2.08;0.93;;;18.10;68.10;;;;;;10542731;28;20051;-52
2021/12/30 10:13:31;;;;;;;3.50;0.75;;;18.10;68.10;;;;;;10515401;28;20545;-52
2021/12/30 10:18:56;;;;;;;2.92;1.10;;;18.00;68.20;;;;;;10524507;28;20039;-52
2021/12/30 10:24:02;;;;;;;2.97;1.05;;;18.00;68.40;;;;;;10531534;28;20495;-53
2021/12/30 10:29:04;;;;;;;2.85;0.82;;;18.00;68.20;;;;;;10523726;28;20026;-50
2021/12/30 10:34:09;;;;;;;3.95;0.75;;;18.10;68.20;;;;;;10541193;28;20535;-53
2021/12/30 10:39:22;;;;;;;3.63;1.13;;;18.00;68.10;;;;;;10508299;28;20024;-53
2021/12/30 10:44:23;;;;;;;2.35;0.90;;;18.00;68.20;;;;;;10512428;28;20451;-50
2021/12/30 10:49:27;;;;;;;3.42;1.20;;;18.00;68.30;;;;;;10481280;28;20073;-49
2021/12/30 10:54:36;;;;;;;3.10;1.00;;;18.00;68.30;;;;;;10512144;28;20069;-51
2021/12/30 10:59:42;;;;;;;1.98;0.70;;;18.10;68.00;;;;;;10521460;28;20024;-50
2021/12/30 11:04:45;;;;;;;3.20;1.00;;;18.10;67.90;;;;;;10499091;28;20408;-51
2021/12/30 11:09:50;;;;;;;1.95;0.90;;;18.10;67.90;;;;;;10498133;28;20366;-53
2021/12/30 11:14:52;;;;;;;3.90;0.73;;;18.10;68.20;;;;;;10510983;28;20492;-52
2021/12/30 11:20:01;;;;;;;2.13;0.88;;;18.00;68.00;;;;;;10499702;28;20040;-52
2021/12/30 11:25:07;;;;;;;2.87;0.87;;;18.10;67.90;;;;;;10511128;28;20043;-53
2021/12/30 11:30:11;;;;;;;2.08;0.70;;;18.20;68.00;;;;;;10531898;28;20111;-53
2021/12/30 11:35:12;;;;;;;2.20;1.13;;;18.20;67.50;;;;;;10515893;28;20062;-53
2021/12/30 11:40:21;;;;;;;2.53;0.85;;;18.40;67.50;;;;;;10487645;28;20029;-54
2021/12/30 11:45:39;;;;;;;2.70;1.25;;;18.50;67.90;;;;;;10501801;28;20048;-48
2021/12/30 11:50:40;;;;;;;5.22;1.10;;;18.40;68.50;;;;;;10498584;28;20074;-49
2021/12/30 11:55:55;;;;;;;4.55;1.40;;;18.30;69.40;;;;;;10533721;28;20077;-52
2021/12/30 12:00:59;;;;;;;3.35;1.20;;;18.20;70.10;;;;;;10534534;28;20039;-51
2021/12/30 12:06:05;;;;;;;6.00;2.22;;;18.20;70.70;;;;;;10518178;28;20515;-51
2021/12/30 12:11:16;;;;;;;5.68;1.38;;;18.20;70.70;;;;;;10525149;28;20090;-50
2021/12/30 12:16:47;;;;;;;4.30;1.17;;;18.20;71.90;;;;;;10519196;28;20036;-52
2021/12/30 12:21:52;;;;;;;2.90;1.30;;;18.20;71.80;;;;;;10516587;28;20048;-50
2021/12/30 12:26:59;;;;;;;4.45;1.40;;;18.20;70.80;;;;;;10502071;28;20039;-50
2021/12/30 12:32:10;;;;;;;4.45;0.98;;;18.20;70.50;;;;;;10479070;28;20469;-51
2021/12/30 12:37:32;;;;;;;4.85;1.33;;;18.10;70.20;;;;;;10483889;28;20039;-51
2021/12/30 12:42:51;;;;;;;6.93;1.85;;;18.10;70.40;;;;;;10521697;28;20044;-53
2021/12/30 12:48:17;;;;;;;5.63;1.77;;;18.00;70.50;;;;;;10505745;28;20032;-53
2021/12/30 12:53:23;;;;;;;6.68;1.35;;;18.00;70.70;;;;;;10524649;28;20033;-53
2021/12/30 12:58:34;;;;;;;5.78;1.67;;;18.10;70.20;;;;;;10498569;28;20120;-52
2021/12/30 13:03:35;;;;;;;7.57;1.20;;;18.10;70.00;;;;;;10482174;28;20037;-54
2021/12/30 13:08:40;;;;;;;5.25;1.48;;;18.10;70.00;;;;;;10477906;28;20036;-54
2021/12/30 13:13:43;;;;;;;6.05;1.63;;;18.10;69.80;;;;;;10478483;28;20071;-54
2021/12/30 13:19:13;;;;;;;3.75;1.20;;;18.10;69.80;;;;;;10525421;28;20020;-53
2021/12/30 13:24:49;;;;;;;4.00;1.40;;;18.10;69.80;;;;;;10512718;28;20472;-53
2021/12/30 13:29:57;;;;;;;3.28;1.20;;;18.00;70.00;;;;;;10531792;28;20429;-53
2021/12/30 13:35:09;;;;;;;5.33;1.40;;;18.00;70.00;;;;;;10531584;28;20033;-53
2021/12/30 13:40:22;;;;;;;3.25;1.33;;;17.90;69.90;;;;;;10466308;28;20483;-53
2021/12/30 13:45:48;;;;;;;4.28;1.30;;;18.00;69.80;;;;;;10511965;28;20029;-52
2021/12/30 13:51:00;;;;;;;5.28;1.27;;;18.00;69.70;;;;;;10529179;28;20092;-53
2021/12/30 13:56:06;;;;;;;2.75;1.10;;;18.00;69.70;;;;;;10523815;28;20024;-53
2021/12/30 14:01:21;;;;;;;4.55;1.25;;;18.00;69.60;;;;;;10522503;28;20036;-52
2021/12/30 14:06:26;;;;;;;6.78;1.52;;;18.10;70.00;;;;;;10508801;28;20038;-54
2021/12/30 14:11:42;;;;;;;2.40;0.90;;;18.10;70.40;;;;;;10513835;28;20032;-53
2021/12/30 14:16:47;;;;;;;3.80;1.15;;;18.10;70.40;;;;;;10504242;28;20481;-53
2021/12/30 14:21:47;;;;;;;2.67;1.17;;;18.10;70.40;;;;;;10521575;28;20052;-51
2021/12/30 14:26:52;;;;;;;2.80;1.35;;;18.10;70.10;;;;;;10513658;28;20569;-52
2021/12/30 14:31:52;;;;;;;2.95;1.38;;;18.10;70.40;;;;;;10519083;28;20111;-55
2021/12/30 14:37:12;;;;;;;3.40;1.30;;;18.10;70.50;;;;;;10539590;28;20813;-53
2021/12/30 14:42:13;;;;;;;4.45;1.60;;;18.10;70.00;;;;;;10528648;28;20368;-53
2021/12/30 14:47:46;;;;;;;2.92;1.40;;;18.10;70.10;;;;;;10515853;28;20036;-52
2021/12/30 14:53:01;;;;;;;3.65;1.15;;;18.10;70.10;;;;;;10498722;28;20438;-54
2021/12/30 14:58:13;;;;;;;3.97;1.45;;;18.10;70.40;;;;;;10520361;28;20036;-52
2021/12/30 15:03:16;;;;;;;4.95;1.50;;;18.00;70.40;;;;;;10514907;28;20039;-53
2021/12/30 15:08:16;;;;;;;4.45;1.38;;;18.00;70.20;;;;;;10517513;28;20060;-51
2021/12/30 15:13:19;;;;;;;6.38;1.63;;;18.00;70.50;;;;;;10531753;28;20032;-51
2021/12/30 15:18:19;;;;;;;3.58;1.90;;;18.00;70.30;;;;;;10497762;28;20031;-52
2021/12/30 15:23:20;;;;;;;3.03;1.23;;;18.00;70.90;;;;;;10518066;28;20052;-49
2021/12/30 15:28:22;;;;;;;3.42;1.20;;;18.00;70.60;;;;;;10496459;28;20503;-51
2021/12/30 15:33:23;;;;;;;3.08;1.30;;;18.00;70.80;;;;;;10537166;28;20028;-52
2021/12/30 15:38:24;;;;;;;5.70;1.20;;;18.00;70.70;;;;;;10511342;28;20036;-50
2021/12/30 15:43:26;;;;;;;4.57;1.50;;;18.00;70.50;;;;;;10521111;28;20036;-53
2021/12/30 15:48:29;;;;;;;3.47;1.52;;;18.10;71.20;;;;;;10490023;28;20028;-50
2021/12/30 15:53:30;;;;;;;4.43;1.38;;;18.20;70.80;;;;;;10538356;28;20028;-53
2021/12/30 15:58:31;;;;;;;5.53;1.60;;;18.30;70.10;;;;;;10535118;28;20388;-51
2021/12/30 16:03:31;;;;;;;5.15;1.10;;;18.30;70.10;;;;;;10501417;28;20039;-50
2021/12/30 16:08:32;;;;;;;3.65;1.00;;;18.30;70.40;;;;;;10509242;28;20055;-50
2021/12/30 16:13:33;;;;;;;28.48;11.00;;;18.30;70.30;;;;;;10500856;28;20433;-50
2021/12/30 16:18:36;;;;;;;10.80;5.18;;;18.40;70.60;;;;;;10506275;28;20446;-50
2021/12/30 16:23:37;;;;;;;9.93;3.83;;;18.60;70.00;;;;;;10497071;28;20064;-51
2021/12/30 16:28:38;;;;;;;7.18;2.95;;;18.60;69.50;;;;;;10514434;28;20039;-51
2021/12/30 16:33:40;;;;;;;6.57;2.85;;;18.60;69.50;;;;;;10509585;28;20480;-53
2021/12/30 16:38:41;;;;;;;11.02;3.03;;;18.50;69.80;;;;;;10488351;28;20024;-51
2021/12/30 16:43:43;;;;;;;7.07;3.30;;;18.50;70.00;;;;;;10506825;28;20067;-47
2021/12/30 16:48:43;;;;;;;8.05;3.83;;;18.60;69.80;;;;;;10527555;28;20032;-49
2021/12/30 16:53:44;;;;;;;9.13;2.78;;;18.60;69.30;;;;;;10532292;28;20564;-52
2021/12/30 16:58:45;;;;;;;9.05;2.33;;;18.70;70.00;;;;;;10527442;28;20031;-55
2021/12/30 17:03:46;;;;;;;5.53;2.47;;;18.80;70.20;;;;;;10485843;28;20024;-53
2021/12/30 17:08:48;;;;;;;5.28;2.50;;;18.90;69.50;;;;;;10485198;28;20103;-52
2021/12/30 17:13:48;;;;;;;9.35;2.17;;;18.90;69.10;;;;;;10489735;28;20032;-54
2021/12/30 17:18:49;;;;;;;3.45;1.90;;;18.90;68.90;;;;;;10544903;28;20383;-52
2021/12/30 17:23:50;;;;;;;4.80;1.92;;;19.00;68.80;;;;;;10524308;28;20249;-52
2021/12/30 17:28:51;;;;;;;5.80;2.58;;;18.90;68.90;;;;;;10507794;28;20177;-51
2021/12/30 17:33:54;;;;;;;6.05;2.28;;;18.90;68.80;;;;;;10526099;28;20081;-52
2021/12/30 17:38:56;;;;;;;6.68;2.45;;;18.90;68.50;;;;;;10519670;28;20024;-47
2021/12/30 17:43:57;;;;;;;4.05;2.15;;;18.80;68.70;;;;;;10517217;28;20068;-51
2021/12/30 17:48:58;;;;;;;10.52;2.58;;;18.80;68.90;;;;;;10513196;28;20020;-52
2021/12/30 17:54:00;;;;;;;5.05;2.08;;;18.80;68.50;;;;;;10501864;28;20122;-50
2021/12/30 17:59:01;;;;;;;4.05;2.45;;;18.80;68.30;;;;;;10500786;28;20113;-51
2021/12/30 18:04:02;;;;;;;2.40;1.85;;;18.80;68.20;;;;;;10486913;28;20115;-51
2021/12/30 18:09:03;;;;;;;4.28;1.73;;;18.80;68.00;;;;;;10500452;28;20032;-50
2021/12/30 18:14:04;;;;;;;6.63;2.42;;;18.80;67.80;;;;;;10503368;28;20035;-51
2021/12/30 18:19:05;;;;;;;3.90;2.35;;;18.80;67.90;;;;;;10511095;28;20518;-53
2021/12/30 18:24:06;;;;;;;4.85;2.10;;;18.80;68.00;;;;;;10521530;28;20021;-51
2021/12/30 18:29:07;;;;;;;5.25;1.98;;;18.80;68.30;;;;;;10499574;28;20120;-51
2021/12/30 18:34:11;;;;;;;5.32;2.40;;;18.70;68.40;;;;;;10496765;28;20109;-51
2021/12/30 18:39:12;;;;;;;2.95;1.85;;;18.70;68.50;;;;;;10501884;28;20031;-53
2021/12/30 18:44:14;;;;;;;3.85;1.77;;;18.60;68.70;;;;;;10517271;28;20024;-55
2021/12/30 18:49:15;;;;;;;5.18;2.25;;;18.50;68.70;;;;;;10536905;28;20103;-53
2021/12/30 18:54:17;;;;;;;5.22;2.05;;;18.50;68.90;;;;;;10540046;28;20468;-51
2021/12/30 18:59:18;;;;;;;4.93;1.58;;;18.50;69.10;;;;;;10501532;28;20107;-53
2021/12/30 19:04:20;;;;;;;4.78;2.30;;;18.40;69.10;;;;;;10519167;28;20051;-54
2021/12/30 19:09:21;;;;;;;4.65;2.20;;;18.30;69.50;;;;;;10497660;28;20024;-54
2021/12/30 19:14:22;;;;;;;4.10;1.83;;;18.20;69.70;;;;;;10536266;28;20035;-54
2021/12/30 19:19:22;;;;;;;19.88;3.67;;;18.20;69.80;;;;;;10538880;28;20052;-53
2021/12/30 19:24:23;;;;;;;5.05;2.33;;;18.20;70.10;;;;;;10466224;28;20020;-55
2021/12/30 19:29:24;;;;;;;6.88;2.65;;;18.20;69.70;;;;;;10521719;28;20028;-52
2021/12/30 19:34:26;;;;;;;6.03;2.15;;;18.20;69.80;;;;;;10536508;28;20187;-54
2021/12/30 19:39:27;;;;;;;4.35;2.15;;;18.20;70.10;;;;;;10511309;28;20506;-53
2021/12/30 19:44:28;;;;;;;7.90;2.08;;;18.30;70.00;;;;;;10515814;28;20024;-54
2021/12/30 19:49:28;;;;;;;5.93;2.00;;;18.20;69.90;;;;;;10517459;28;20035;-54
2021/12/30 19:54:29;;;;;;;5.25;2.25;;;18.20;70.00;;;;;;10535112;28;20028;-55
2021/12/30 19:59:30;;;;;;;3.80;1.80;;;18.20;70.10;;;;;;10516136;28;20042;-52
2021/12/30 20:04:31;;;;;;;4.53;1.88;;;18.10;70.10;;;;;;10534719;28;20055;-54
2021/12/30 20:09:31;;;;;;;3.88;1.70;;;18.10;70.20;;;;;;10536723;28;20028;-54
2021/12/30 20:14:34;;;;;;;2.95;1.67;;;18.10;70.30;;;;;;10513795;28;20032;-54
2021/12/30 20:19:35;;;;;;;7.13;2.38;;;18.10;70.50;;;;;;10514926;28;20044;-52
2021/12/30 20:24:38;;;;;;;2.90;2.10;;;18.00;71.30;;;;;;10517739;28;20048;-54
2021/12/30 20:29:39;;;;;;;2.13;1.60;;;18.00;70.80;;;;;;10527650;28;20067;-49
2021/12/30 20:34:41;;;;;;;3.17;2.10;;;18.00;71.20;;;;;;10498915;28;20483;-50
2021/12/30 20:39:42;;;;;;;5.43;2.17;;;18.00;70.80;;;;;;10507763;28;20391;-47
2021/12/30 20:44:43;;;;;;;5.28;2.13;;;18.00;70.90;;;;;;10487477;28;20048;-49
2021/12/30 20:49:44;;;;;;;6.07;2.20;;;18.00;71.20;;;;;;10505608;28;20028;-47
2021/12/30 20:54:45;;;;;;;3.92;2.00;;;17.90;71.00;;;;;;10525595;28;20481;-45
2021/12/30 20:59:45;;;;;;;3.85;1.90;;;17.90;71.00;;;;;;10496217;28;20476;-47
2021/12/30 21:04:46;;;;;;;3.58;1.52;;;17.90;71.10;;;;;;10479162;28;20028;-51
2021/12/30 21:09:47;;;;;;;5.13;1.77;;;17.90;70.80;;;;;;10477372;28;20033;-50
2021/12/30 21:14:48;;;;;;;3.25;1.80;;;17.90;70.70;;;;;;10516054;28;20028;-50
2021/12/30 21:19:49;;;;;;;3.45;1.80;;;18.00;70.60;;;;;;10536941;28;20056;-46
2021/12/30 21:24:50;;;;;;;4.15;1.60;;;18.00;70.20;;;;;;10541345;28;20054;-46
2021/12/30 21:29:51;;;;;;;3.70;1.63;;;18.10;70.20;;;;;;10506087;28;20318;-48
2021/12/30 21:34:51;;;;;;;2.72;1.83;;;18.20;69.80;;;;;;10502415;28;20047;-47
2021/12/30 21:39:52;;;;;;;2.28;1.40;;;18.30;69.60;;;;;;10493849;28;20107;-49
2021/12/30 21:44:53;;;;;;;3.65;1.67;;;18.30;69.50;;;;;;10520236;28;20104;-46
2021/12/30 21:49:53;;;;;;;4.30;1.50;;;18.30;69.50;;;;;;10501857;28;20024;-46
2021/12/30 21:54:55;;;;;;;3.95;1.48;;;18.30;69.30;;;;;;10529209;28;20373;-49
2021/12/30 21:59:55;;;;;;;3.33;1.80;;;18.30;69.20;;;;;;10519725;28;20026;-46
2021/12/30 22:04:56;;;;;;;2.72;1.75;;;18.30;69.20;;;;;;10483789;28;20044;-49
2021/12/30 22:09:57;;;;;;;3.40;1.63;;;18.30;69.40;;;;;;10501370;28;20059;-51
2021/12/30 22:14:58;;;;;;;3.53;1.52;;;18.20;69.50;;;;;;10483110;28;20025;-51
2021/12/30 22:19:58;;;;;;;3.05;1.27;;;18.20;69.70;;;;;;10500374;28;20044;-47
2021/12/30 22:24:59;;;;;;;3.15;1.13;;;18.10;69.70;;;;;;10514174;28;20111;-50
2021/12/30 22:30:02;;;;;;;2.30;1.25;;;18.10;69.90;;;;;;10517319;28;20036;-47
2021/12/30 22:35:06;;;;;;;3.25;1.38;;;18.00;70.00;;;;;;10513840;28;20085;-49
2021/12/30 22:40:09;;;;;;;2.83;1.60;;;18.10;69.70;;;;;;10541767;28;20035;-48
2021/12/30 22:45:12;;;;;;;3.25;1.48;;;18.20;69.20;;;;;;10541480;28;20024;-50
2021/12/30 22:50:14;;;;;;;3.05;1.40;;;18.30;69.70;;;;;;10537610;28;20036;-46
2021/12/30 22:55:15;;;;;;;2.35;1.67;;;18.40;68.70;;;;;;10540287;28;20531;-47
2021/12/30 23:00:46;;;;;;;2.20;1.17;;;18.40;68.70;;;;;;10526900;28;20128;-48
2021/12/30 23:05:47;;;;;;;1.40;1.05;;;18.40;68.70;;;;;;10525510;28;20426;-48
2021/12/30 23:10:49;;;;;;;1.38;1.15;;;18.30;68.80;;;;;;10517781;28;20488;-46
2021/12/30 23:15:50;;;;;;;4.68;1.55;;;18.30;69.00;;;;;;10512161;28;20385;-46
2021/12/30 23:20:52;;;;;;;2.13;1.00;;;18.20;69.10;;;;;;10464108;28;20110;-47
2021/12/30 23:25:53;;;;;;;2.95;1.52;;;18.20;69.20;;;;;;10500197;28;20483;-46
2021/12/30 23:30:54;;;;;;;2.67;1.30;;;18.20;69.20;;;;;;10508375;28;20106;-48
2021/12/30 23:35:54;;;;;;;2.33;1.23;;;18.20;69.30;;;;;;10492530;28;20024;-46
2021/12/30 23:40:56;;;;;;;1.58;1.10;;;18.30;69.00;;;;;;10489460;28;20424;-48
2021/12/30 23:45:56;;;;;;;2.47;1.10;;;18.30;68.90;;;;;;10478931;28;20020;-50
2021/12/30 23:50:57;;;;;;;1.60;1.10;;;18.30;69.00;;;;;;10497090;28;20040;-50
2021/12/30 23:55:58;;;;;;;1.42;0.90;;;18.20;69.00;;;;;;10530979;28;20373;-49
